createdAt,value
2018-07-27T00:00:04.261Z,1012.70
2018-07-27T00:01:04.288Z,1012.62
2018-07-27T00:02:04.268Z,1012.69
2018-07-27T00:03:04.342Z,1012.67
2018-07-27T00:04:04.362Z,1012.66
2018-07-27T00:05:04.329Z,1012.71
2018-07-27T00:06:04.351Z,1012.66
2018-07-27T00:07:04.385Z,1012.68
2018-07-27T00:08:04.391Z,1012.65
2018-07-27T00:09:04.425Z,1012.67
2018-07-27T00:10:04.405Z,1012.67
2018-07-27T00:11:04.453Z,1012.63
2018-07-27T00:12:04.461Z,1012.68
2018-07-27T00:13:04.480Z,1012.69
2018-07-27T00:14:04.465Z,1012.70
2018-07-27T00:15:04.520Z,1012.69
2018-07-27T00:16:04.502Z,1012.69
2018-07-27T00:17:04.472Z,1012.67
2018-07-27T00:18:04.535Z,1012.69
2018-07-27T00:19:04.548Z,1012.68
2018-07-27T00:20:04.630Z,1012.70
2018-07-27T00:21:04.571Z,1012.67
2018-07-27T00:22:04.580Z,1012.69
2018-07-27T00:23:04.585Z,1012.69
2018-07-27T00:24:04.595Z,1012.69
2018-07-27T00:25:04.665Z,1012.70
2018-07-27T00:26:04.639Z,1012.70
2018-07-27T00:27:04.668Z,1012.70
2018-07-27T00:28:04.679Z,1012.65
2018-07-27T00:29:04.732Z,1012.64
2018-07-27T00:30:04.738Z,1012.69
2018-07-27T00:31:04.767Z,1012.67
2018-07-27T00:32:04.757Z,1012.70
2018-07-27T00:33:04.745Z,1012.73
2018-07-27T00:34:04.746Z,1012.71
2018-07-27T00:35:04.874Z,1012.67
2018-07-27T00:36:04.834Z,1012.67
2018-07-27T00:37:04.838Z,1012.67
2018-07-27T00:38:04.847Z,1012.69
2018-07-27T00:39:04.880Z,1012.65
2018-07-27T00:40:04.844Z,1012.65
2018-07-27T00:41:04.852Z,1012.66
2018-07-27T00:42:04.877Z,1012.65
2018-07-27T00:43:04.883Z,1012.63
2018-07-27T00:44:04.946Z,1012.61
2018-07-27T00:45:04.900Z,1012.62
2018-07-27T00:46:05.057Z,1012.62
2018-07-27T00:47:05.001Z,1012.59
2018-07-27T00:48:04.956Z,1012.61
2018-07-27T00:49:05.076Z,1012.60
2018-07-27T00:50:05.001Z,1012.60
2018-07-27T00:51:04.992Z,1012.62
2018-07-27T00:52:05.070Z,1012.57
2018-07-27T00:53:05.046Z,1012.63
2018-07-27T00:54:05.111Z,1012.63
2018-07-27T00:55:05.088Z,1012.60
2018-07-27T00:56:05.179Z,1012.66
2018-07-27T00:57:05.157Z,1012.63
2018-07-27T00:58:05.097Z,1012.55
2018-07-27T00:59:05.113Z,1012.57
2018-07-27T01:00:05.163Z,1012.62
2018-07-27T01:01:05.179Z,1012.58
2018-07-27T01:02:05.169Z,1012.57
2018-07-27T01:03:05.192Z,1012.58
2018-07-27T01:04:05.168Z,1012.56
2018-07-27T01:05:05.215Z,1012.54
2018-07-27T01:06:05.267Z,1012.54
2018-07-27T01:07:05.251Z,1012.51
2018-07-27T01:08:05.246Z,1012.55
2018-07-27T01:09:05.336Z,1012.47
2018-07-27T01:10:05.328Z,1012.49
2018-07-27T01:11:05.294Z,1012.54
2018-07-27T01:12:05.343Z,1012.54
2018-07-27T01:13:05.330Z,1012.48
2018-07-27T01:14:05.334Z,1012.46
2018-07-27T01:15:05.340Z,1012.43
2018-07-27T01:16:05.371Z,1012.44
2018-07-27T01:17:05.398Z,1012.47
2018-07-27T01:18:05.380Z,1012.45
2018-07-27T01:19:05.478Z,1012.44
2018-07-27T01:20:05.449Z,1012.44
2018-07-27T01:21:05.442Z,1012.48
2018-07-27T01:22:05.434Z,1012.45
2018-07-27T01:23:05.494Z,1012.44
2018-07-27T01:24:05.511Z,1012.44
2018-07-27T01:25:05.563Z,1012.46
2018-07-27T01:26:05.519Z,1012.45
2018-07-27T01:27:05.537Z,1012.47
2018-07-27T01:28:05.507Z,1012.46
2018-07-27T01:29:05.555Z,1012.45
2018-07-27T01:30:05.568Z,1012.43
2018-07-27T01:31:05.644Z,1012.46
2018-07-27T01:32:05.566Z,1012.42
2018-07-27T01:33:05.637Z,1012.45
2018-07-27T01:34:05.598Z,1012.41
2018-07-27T01:35:05.645Z,1012.42
2018-07-27T01:36:05.706Z,1012.39
2018-07-27T01:37:05.697Z,1012.40
2018-07-27T01:38:05.695Z,1012.36
2018-07-27T01:39:05.728Z,1012.40
2018-07-27T01:40:05.705Z,1012.42
2018-07-27T01:41:05.712Z,1012.37
2018-07-27T01:42:05.730Z,1012.34
2018-07-27T01:43:05.980Z,1012.36
2018-07-27T01:44:05.787Z,1012.35
2018-07-27T01:45:05.801Z,1012.32
2018-07-27T01:46:05.770Z,1012.37
2018-07-27T01:47:05.792Z,1012.32
2018-07-27T01:48:05.796Z,1012.31
2018-07-27T01:49:05.892Z,1012.35
2018-07-27T01:50:05.860Z,1012.31
2018-07-27T01:51:05.889Z,1012.33
2018-07-27T01:52:05.871Z,1012.30
2018-07-27T01:53:05.918Z,1012.31
2018-07-27T01:54:05.898Z,1012.34
2018-07-27T01:55:05.923Z,1012.34
2018-07-27T01:56:05.939Z,1012.36
2018-07-27T01:57:05.903Z,1012.35
2018-07-27T01:58:05.949Z,1012.33
2018-07-27T01:59:05.932Z,1012.32
2018-07-27T02:00:06.084Z,1012.31
2018-07-27T02:01:05.990Z,1012.31
2018-07-27T02:02:05.993Z,1012.29
2018-07-27T02:03:06.014Z,1012.29
2018-07-27T02:04:06.010Z,1012.29
2018-07-27T02:05:06.014Z,1012.32
2018-07-27T02:06:06.085Z,1012.35
2018-07-27T02:07:06.126Z,1012.26
2018-07-27T02:08:06.075Z,1012.29
2018-07-27T02:09:06.067Z,1012.26
2018-07-27T02:10:06.101Z,1012.30
2018-07-27T02:11:06.128Z,1012.27
2018-07-27T02:12:06.407Z,1012.29
2018-07-27T02:13:06.235Z,1012.32
2018-07-27T02:14:06.218Z,1012.29
2018-07-27T02:15:06.215Z,1012.32
2018-07-27T02:16:06.201Z,1012.32
2018-07-27T02:17:06.218Z,1012.29
2018-07-27T02:18:06.219Z,1012.36
2018-07-27T02:19:06.327Z,1012.35
2018-07-27T02:20:06.307Z,1012.31
2018-07-27T02:21:06.245Z,1012.28
2018-07-27T02:22:06.276Z,1012.27
2018-07-27T02:23:06.330Z,1012.32
2018-07-27T02:24:06.366Z,1012.25
2018-07-27T02:25:06.395Z,1012.25
2018-07-27T02:26:06.342Z,1012.23
2018-07-27T02:27:06.356Z,1012.27
2018-07-27T02:28:06.351Z,1012.21
2018-07-27T02:29:06.532Z,1012.17
2018-07-27T02:30:06.438Z,1012.26
2018-07-27T02:31:06.420Z,1012.21
2018-07-27T02:32:06.423Z,1012.22
2018-07-27T02:33:06.452Z,1012.17
2018-07-27T02:34:06.469Z,1012.18
2018-07-27T02:35:06.532Z,1012.16
2018-07-27T02:36:06.468Z,1012.16
2018-07-27T02:37:06.526Z,1012.17
2018-07-27T02:38:06.493Z,1012.20
2018-07-27T02:39:06.512Z,1012.17
2018-07-27T02:40:06.615Z,1012.14
2018-07-27T02:41:06.576Z,1012.11
2018-07-27T02:42:06.641Z,1012.09
2018-07-27T02:43:06.589Z,1012.09
2018-07-27T02:44:06.617Z,1012.08
2018-07-27T02:45:06.638Z,1012.09
2018-07-27T02:46:06.622Z,1012.08
2018-07-27T02:47:06.653Z,1012.03
2018-07-27T02:48:06.783Z,1012.05
2018-07-27T02:49:06.706Z,1012.03
2018-07-27T02:50:06.717Z,1012.06
2018-07-27T02:51:06.678Z,1012.06
2018-07-27T02:52:06.727Z,1012.03
2018-07-27T02:53:06.787Z,1012.04
2018-07-27T02:54:06.741Z,1012.06
2018-07-27T02:55:06.759Z,1012.05
2018-07-27T02:56:06.752Z,1012.08
2018-07-27T02:57:06.785Z,1012.10
2018-07-27T02:58:06.810Z,1012.10
2018-07-27T02:59:06.786Z,1012.10
2018-07-27T03:00:06.847Z,1012.08
2018-07-27T03:01:06.887Z,1012.13
2018-07-27T03:02:06.835Z,1012.12
2018-07-27T03:03:06.863Z,1012.13
2018-07-27T03:04:06.860Z,1012.13
2018-07-27T03:05:06.930Z,1012.14
2018-07-27T03:06:06.980Z,1012.10
2018-07-27T03:07:06.906Z,1012.13
2018-07-27T03:08:06.924Z,1012.17
2018-07-27T03:09:06.967Z,1012.16
2018-07-27T03:10:06.959Z,1012.15
2018-07-27T03:11:06.994Z,1012.16
2018-07-27T03:12:06.983Z,1012.21
2018-07-27T03:13:07.038Z,1012.22
2018-07-27T03:14:07.053Z,1012.20
2018-07-27T03:15:07.029Z,1012.27
2018-07-27T03:16:07.038Z,1012.23
2018-07-27T03:17:07.119Z,1012.32
2018-07-27T03:18:07.086Z,1012.24
2018-07-27T03:19:07.097Z,1012.26
2018-07-27T03:20:07.129Z,1012.28
2018-07-27T03:21:07.081Z,1012.26
2018-07-27T03:22:07.139Z,1012.31
2018-07-27T03:23:07.142Z,1012.26
2018-07-27T03:24:07.158Z,1012.26
2018-07-27T03:25:07.198Z,1012.26
2018-07-27T03:26:07.298Z,1012.31
2018-07-27T03:27:07.187Z,1012.30
2018-07-27T03:28:07.208Z,1012.27
2018-07-27T03:29:07.350Z,1012.28
2018-07-27T03:30:07.289Z,1012.33
2018-07-27T03:31:07.275Z,1012.31
2018-07-27T03:32:07.266Z,1012.29
2018-07-27T03:33:07.338Z,1012.24
2018-07-27T03:34:07.354Z,1012.24
2018-07-27T03:35:07.329Z,1012.28
2018-07-27T03:36:07.335Z,1012.28
2018-07-27T03:37:07.387Z,1012.23
2018-07-27T03:38:07.370Z,1012.27
2018-07-27T03:39:07.368Z,1012.25
2018-07-27T03:40:07.403Z,1012.26
2018-07-27T03:41:07.413Z,1012.29
2018-07-27T03:42:07.557Z,1012.28
2018-07-27T03:43:07.470Z,1012.30
2018-07-27T03:44:07.451Z,1012.32
2018-07-27T03:45:07.491Z,1012.28
2018-07-27T03:46:07.484Z,1012.27
2018-07-27T03:47:07.505Z,1012.30
2018-07-27T03:48:07.563Z,1012.29
2018-07-27T03:49:07.538Z,1012.27
2018-07-27T03:50:07.513Z,1012.28
2018-07-27T03:51:07.536Z,1012.33
2018-07-27T03:52:07.560Z,1012.31
2018-07-27T03:53:07.605Z,1012.33
2018-07-27T03:54:07.573Z,1012.35
2018-07-27T03:55:07.577Z,1012.35
2018-07-27T03:56:07.631Z,1012.41
2018-07-27T03:57:07.676Z,1012.39
2018-07-27T03:58:07.630Z,1012.37
2018-07-27T03:59:07.612Z,1012.35
2018-07-27T04:00:07.695Z,1012.37
2018-07-27T04:01:07.678Z,1012.35
2018-07-27T04:02:07.681Z,1012.38
2018-07-27T04:03:07.743Z,1012.38
2018-07-27T04:04:07.711Z,1012.40
2018-07-27T04:05:07.748Z,1012.35
2018-07-27T04:06:07.752Z,1012.38
2018-07-27T04:07:07.773Z,1012.36
2018-07-27T04:08:07.773Z,1012.40
2018-07-27T04:09:07.819Z,1012.37
2018-07-27T04:10:07.834Z,1012.43
2018-07-27T04:11:07.817Z,1012.38
2018-07-27T04:12:07.834Z,1012.33
2018-07-27T04:13:07.808Z,1012.33
2018-07-27T04:14:07.868Z,1012.33
2018-07-27T04:15:07.867Z,1012.33
2018-07-27T04:16:07.912Z,1012.34
2018-07-27T04:17:07.887Z,1012.33
2018-07-27T04:18:07.898Z,1012.38
2018-07-27T04:19:07.967Z,1012.35
2018-07-27T04:20:07.964Z,1012.34
2018-07-27T04:21:07.956Z,1012.35
2018-07-27T04:22:07.951Z,1012.33
2018-07-27T04:23:07.967Z,1012.32
2018-07-27T04:24:07.971Z,1012.33
2018-07-27T04:25:08.020Z,1012.36
2018-07-27T04:26:08.048Z,1012.34
2018-07-27T04:27:08.021Z,1012.30
2018-07-27T04:28:08.042Z,1012.29
2018-07-27T04:29:08.048Z,1012.33
2018-07-27T04:30:08.077Z,1012.30
2018-07-27T04:31:08.079Z,1012.33
2018-07-27T04:32:08.132Z,1012.31
2018-07-27T04:33:08.137Z,1012.28
2018-07-27T04:34:08.136Z,1012.31
2018-07-27T04:35:08.154Z,1012.34
2018-07-27T04:36:08.186Z,1012.32
2018-07-27T04:37:08.220Z,1012.33
2018-07-27T04:38:08.236Z,1012.32
2018-07-27T04:39:08.192Z,1012.32
2018-07-27T04:40:08.186Z,1012.30
2018-07-27T04:41:08.264Z,1012.31
2018-07-27T04:42:08.239Z,1012.32
2018-07-27T04:43:08.280Z,1012.37
2018-07-27T04:44:08.261Z,1012.36
2018-07-27T04:45:08.295Z,1012.33
2018-07-27T04:46:08.299Z,1012.35
2018-07-27T04:47:08.287Z,1012.36
2018-07-27T04:48:08.348Z,1012.36
2018-07-27T04:49:08.361Z,1012.41
2018-07-27T04:50:08.345Z,1012.45
2018-07-27T04:51:08.370Z,1012.38
2018-07-27T04:52:08.372Z,1012.39
2018-07-27T04:53:08.420Z,1012.44
2018-07-27T04:54:08.437Z,1012.45
2018-07-27T04:55:08.436Z,1012.44
2018-07-27T04:56:08.554Z,1012.46
2018-07-27T04:57:08.441Z,1012.46
2018-07-27T04:58:08.494Z,1012.41
2018-07-27T04:59:08.532Z,1012.43
2018-07-27T05:00:08.502Z,1012.43
2018-07-27T05:01:08.510Z,1012.46
2018-07-27T05:02:08.526Z,1012.44
2018-07-27T05:03:08.690Z,1012.41
2018-07-27T05:04:08.607Z,1012.46
2018-07-27T05:05:08.594Z,1012.45
2018-07-27T05:06:08.583Z,1012.47
2018-07-27T05:07:08.613Z,1012.47
2018-07-27T05:08:08.611Z,1012.50
2018-07-27T05:09:08.631Z,1012.49
2018-07-27T05:10:08.686Z,1012.50
2018-07-27T05:11:08.690Z,1012.54
2018-07-27T05:12:08.804Z,1012.56
2018-07-27T05:13:08.733Z,1012.55
2018-07-27T05:14:08.771Z,1012.60
2018-07-27T05:15:09.019Z,1012.64
2018-07-27T05:16:08.815Z,1012.59
2018-07-27T05:17:08.751Z,1012.64
2018-07-27T05:18:08.835Z,1012.69
2018-07-27T05:19:08.789Z,1012.72
2018-07-27T05:20:08.804Z,1012.70
2018-07-27T05:21:08.825Z,1012.62
2018-07-27T05:22:09.011Z,1012.66
2018-07-27T05:23:08.846Z,1012.68
2018-07-27T05:24:08.860Z,1012.61
2018-07-27T05:25:08.892Z,1012.67
2018-07-27T05:26:08.937Z,1012.69
2018-07-27T05:27:08.912Z,1012.66
2018-07-27T05:28:08.942Z,1012.65
2018-07-27T05:29:08.998Z,1012.65
2018-07-27T05:30:08.939Z,1012.66
2018-07-27T05:31:09.008Z,1012.78
2018-07-27T05:32:08.992Z,1012.80
2018-07-27T05:33:09.037Z,1013.01
2018-07-27T05:34:09.027Z,1013.05
2018-07-27T05:35:09.027Z,1012.81
2018-07-27T05:36:09.069Z,1012.69
2018-07-27T05:37:09.085Z,1012.67
2018-07-27T05:38:09.148Z,1012.65
2018-07-27T05:39:09.115Z,1012.63
2018-07-27T05:40:09.124Z,1012.69
2018-07-27T05:41:09.184Z,1012.75
2018-07-27T05:42:09.161Z,1012.93
2018-07-27T05:43:09.269Z,1012.97
2018-07-27T05:44:09.224Z,1012.77
2018-07-27T05:45:09.212Z,1012.88
2018-07-27T05:46:09.216Z,1012.95
2018-07-27T05:47:09.288Z,1012.78
2018-07-27T05:48:09.288Z,1012.75
2018-07-27T05:49:09.312Z,1012.72
2018-07-27T05:50:09.290Z,1012.70
2018-07-27T05:51:09.338Z,1012.85
2018-07-27T05:52:09.444Z,1012.84
2018-07-27T05:53:09.352Z,1012.80
2018-07-27T05:54:09.399Z,1012.82
2018-07-27T05:55:10.213Z,1012.97
2018-07-27T05:56:09.704Z,1013.10
2018-07-27T05:57:09.486Z,1013.01
2018-07-27T05:58:09.571Z,1012.88
2018-07-27T05:59:09.461Z,1012.76
2018-07-27T06:00:09.491Z,1012.74
2018-07-27T06:01:09.590Z,1012.72
2018-07-27T06:02:10.438Z,1012.70
2018-07-27T06:03:09.521Z,1012.71
2018-07-27T06:04:09.566Z,1012.68
2018-07-27T06:05:09.578Z,1012.66
2018-07-27T06:06:09.612Z,1012.67
2018-07-27T06:07:09.714Z,1012.66
2018-07-27T06:08:09.609Z,1012.62
2018-07-27T06:09:09.615Z,1012.63
2018-07-27T06:10:09.640Z,1012.64
2018-07-27T06:11:09.681Z,1012.64
2018-07-27T06:12:09.728Z,1012.64
2018-07-27T06:13:09.715Z,1012.63
2018-07-27T06:14:09.787Z,1012.60
2018-07-27T06:15:09.739Z,1012.62
2018-07-27T06:16:09.813Z,1012.64
2018-07-27T06:17:09.775Z,1012.65
2018-07-27T06:18:09.932Z,1012.65
2018-07-27T06:19:09.826Z,1012.64
2018-07-27T06:20:09.819Z,1012.63
2018-07-27T06:21:09.905Z,1012.66
2018-07-27T06:22:09.899Z,1012.62
2018-07-27T06:23:09.896Z,1012.66
2018-07-27T06:24:10.008Z,1012.67
2018-07-27T06:25:09.920Z,1012.64
2018-07-27T06:26:09.994Z,1012.66
2018-07-27T06:27:09.963Z,1012.68
2018-07-27T06:28:10.048Z,1012.71
2018-07-27T06:29:10.053Z,1012.74
2018-07-27T06:30:10.080Z,1012.71
2018-07-27T06:31:10.035Z,1012.69
2018-07-27T06:32:10.091Z,1012.68
2018-07-27T06:33:10.086Z,1012.65
2018-07-27T06:34:10.106Z,1012.64
2018-07-27T06:35:10.152Z,1012.64
2018-07-27T06:36:10.132Z,1012.63
2018-07-27T06:37:10.172Z,1012.65
2018-07-27T06:38:10.402Z,1012.66
2018-07-27T06:39:10.388Z,1012.65
2018-07-27T06:40:10.878Z,1012.60
2018-07-27T06:41:10.247Z,1012.58
2018-07-27T06:42:10.506Z,1012.74
2018-07-27T06:43:10.321Z,1012.76
2018-07-27T06:44:10.691Z,1012.70
2018-07-27T06:45:10.401Z,1012.74
2018-07-27T06:46:10.354Z,1012.76
2018-07-27T06:47:10.513Z,1012.79
2018-07-27T06:48:10.378Z,1012.82
2018-07-27T06:49:10.381Z,1012.75
2018-07-27T06:50:10.399Z,1012.66
2018-07-27T06:51:10.414Z,1012.64
2018-07-27T06:52:10.457Z,1012.65
2018-07-27T06:53:10.454Z,1012.66
2018-07-27T06:54:10.553Z,1012.70
2018-07-27T06:55:10.485Z,1012.64
2018-07-27T06:56:10.499Z,1012.59
2018-07-27T06:57:10.549Z,1012.62
2018-07-27T06:58:10.538Z,1012.62
2018-07-27T06:59:10.629Z,1012.61
2018-07-27T07:00:10.603Z,1012.63
2018-07-27T07:01:10.690Z,1012.60
2018-07-27T07:02:10.627Z,1012.59
2018-07-27T07:03:10.642Z,1012.57
2018-07-27T07:04:10.746Z,1012.60
2018-07-27T07:05:10.703Z,1012.58
2018-07-27T07:06:10.702Z,1012.62
2018-07-27T07:07:10.762Z,1012.64
2018-07-27T07:08:11.373Z,1012.60
2018-07-27T07:09:10.784Z,1012.64
2018-07-27T07:10:10.773Z,1012.64
2018-07-27T07:11:10.773Z,1012.63
2018-07-27T07:12:10.846Z,1012.62
2018-07-27T07:13:10.869Z,1012.64
2018-07-27T07:14:10.882Z,1012.66
2018-07-27T07:15:10.912Z,1012.67
2018-07-27T07:16:10.881Z,1012.68
2018-07-27T07:17:10.921Z,1012.67
2018-07-27T07:18:10.924Z,1012.65
2018-07-27T07:19:10.984Z,1012.64
2018-07-27T07:20:10.972Z,1012.64
2018-07-27T07:21:11.012Z,1012.68
2018-07-27T07:22:10.995Z,1012.64
2018-07-27T07:23:11.094Z,1012.66
2018-07-27T07:24:11.052Z,1012.66
2018-07-27T07:25:11.167Z,1012.61
2018-07-27T07:26:11.371Z,1012.65
2018-07-27T07:27:11.150Z,1012.66
2018-07-27T07:28:11.129Z,1012.61
2018-07-27T07:29:11.159Z,1012.63
2018-07-27T07:30:11.132Z,1012.63
2018-07-27T07:31:11.171Z,1012.60
2018-07-27T07:32:11.233Z,1012.59
2018-07-27T07:33:11.205Z,1012.58
2018-07-27T07:34:11.219Z,1012.69
2018-07-27T07:35:11.226Z,1012.65
2018-07-27T07:36:11.274Z,1012.61
2018-07-27T07:37:11.286Z,1012.62
2018-07-27T07:38:11.285Z,1012.61
2018-07-27T07:39:11.405Z,1012.60
2018-07-27T07:40:11.331Z,1012.62
2018-07-27T07:41:11.346Z,1012.59
2018-07-27T07:42:11.358Z,1012.61
2018-07-27T07:43:11.435Z,1012.61
2018-07-27T07:44:11.451Z,1012.62
2018-07-27T07:45:11.479Z,1012.59
2018-07-27T07:46:11.407Z,1012.62
2018-07-27T07:47:11.458Z,1012.60
2018-07-27T07:48:11.456Z,1012.63
2018-07-27T07:49:11.929Z,1012.67
2018-07-27T07:50:12.151Z,1012.67
2018-07-27T07:51:11.550Z,1012.66
2018-07-27T07:52:11.658Z,1012.67
2018-07-27T07:53:11.619Z,1012.65
2018-07-27T07:54:11.568Z,1012.66
2018-07-27T07:55:11.635Z,1012.65
2018-07-27T07:56:11.935Z,1012.61
2018-07-27T07:57:11.630Z,1012.60
2018-07-27T07:58:12.016Z,1012.57
2018-07-27T07:59:11.652Z,1012.61
2018-07-27T08:00:11.697Z,1012.62
2018-07-27T08:01:11.681Z,1012.67
2018-07-27T08:02:12.171Z,1012.61
2018-07-27T08:03:11.785Z,1012.58
2018-07-27T08:04:11.828Z,1012.57
2018-07-27T08:05:11.984Z,1012.63
2018-07-27T08:06:11.914Z,1012.51
2018-07-27T08:07:12.051Z,1012.54
2018-07-27T08:08:11.870Z,1012.50
2018-07-27T08:09:12.029Z,1012.48
2018-07-27T08:10:11.870Z,1012.48
2018-07-27T08:11:12.207Z,1012.45
2018-07-27T08:12:11.970Z,1012.50
2018-07-27T08:13:11.964Z,1012.45
2018-07-27T08:14:12.024Z,1012.46
2018-07-27T08:15:12.025Z,1012.48
2018-07-27T08:16:12.132Z,1012.48
2018-07-27T08:17:12.143Z,1012.46
2018-07-27T08:18:12.665Z,1012.45
2018-07-27T08:19:12.006Z,1012.52
2018-07-27T08:20:12.042Z,1012.47
2018-07-27T08:21:12.020Z,1012.50
2018-07-27T08:22:12.091Z,1012.50
2018-07-27T08:23:12.075Z,1012.49
2018-07-27T08:24:12.128Z,1012.53
2018-07-27T08:25:12.118Z,1012.50
2018-07-27T08:26:12.216Z,1012.51
2018-07-27T08:27:12.148Z,1012.51
2018-07-27T08:28:12.155Z,1012.50
2018-07-27T08:29:12.198Z,1012.49
2018-07-27T08:30:12.239Z,1012.43
2018-07-27T08:31:12.223Z,1012.40
2018-07-27T08:32:12.230Z,1012.42
2018-07-27T08:33:12.249Z,1012.43
2018-07-27T08:34:12.235Z,1012.40
2018-07-27T08:35:12.332Z,1012.38
2018-07-27T08:36:12.291Z,1012.37
2018-07-27T08:37:12.385Z,1012.37
2018-07-27T08:38:12.349Z,1012.39
2018-07-27T08:39:12.342Z,1012.35
2018-07-27T08:40:12.340Z,1012.41
2018-07-27T08:41:12.383Z,1012.44
2018-07-27T08:42:12.428Z,1012.40
2018-07-27T08:43:12.404Z,1012.41
2018-07-27T08:44:12.452Z,1012.34
2018-07-27T08:45:12.450Z,1012.38
2018-07-27T08:46:12.473Z,1012.34
2018-07-27T08:47:12.534Z,1012.32
2018-07-27T08:48:12.512Z,1012.34
2018-07-27T08:49:12.550Z,1012.32
2018-07-27T08:50:12.566Z,1012.33
2018-07-27T08:51:12.526Z,1012.29
2018-07-27T08:52:12.562Z,1012.30
2018-07-27T08:53:12.593Z,1012.20
2018-07-27T08:54:12.615Z,1012.29
2018-07-27T08:55:12.712Z,1012.26
2018-07-27T08:56:12.667Z,1012.19
2018-07-27T08:57:12.670Z,1012.21
2018-07-27T08:58:12.674Z,1012.24
2018-07-27T08:59:12.894Z,1012.22
2018-07-27T09:00:12.740Z,1012.21
2018-07-27T09:01:12.747Z,1012.16
2018-07-27T09:02:12.780Z,1012.16
2018-07-27T09:03:12.782Z,1012.26
2018-07-27T09:04:12.816Z,1012.21
2018-07-27T09:05:12.786Z,1012.29
2018-07-27T09:06:12.812Z,1012.32
2018-07-27T09:07:12.850Z,1012.30
2018-07-27T09:08:12.831Z,1012.21
2018-07-27T09:09:13.070Z,1012.14
2018-07-27T09:10:12.923Z,1012.16
2018-07-27T09:11:12.935Z,1012.12
2018-07-27T09:12:13.175Z,1012.08
2018-07-27T09:13:12.957Z,1012.12
2018-07-27T09:14:12.976Z,1012.07
2018-07-27T09:15:12.967Z,1012.08
2018-07-27T09:16:12.984Z,1012.06
2018-07-27T09:17:13.005Z,1012.10
2018-07-27T09:18:13.029Z,1012.10
2018-07-27T09:19:13.098Z,1012.09
2018-07-27T09:20:13.024Z,1012.08
2018-07-27T09:21:13.081Z,1012.07
2018-07-27T09:22:13.097Z,1012.05
2018-07-27T09:23:13.116Z,1012.07
2018-07-27T09:24:13.250Z,1012.08
2018-07-27T09:25:13.458Z,1012.03
2018-07-27T09:26:13.165Z,1012.02
2018-07-27T09:27:13.200Z,1011.99
2018-07-27T09:28:13.198Z,1011.96
2018-07-27T09:29:13.246Z,1011.94
2018-07-27T09:30:13.276Z,1012.04
2018-07-27T09:31:13.276Z,1011.98
2018-07-27T09:32:13.318Z,1011.96
2018-07-27T09:33:13.267Z,1011.96
2018-07-27T09:34:13.331Z,1012.02
2018-07-27T09:35:13.376Z,1012.07
2018-07-27T09:36:13.380Z,1011.96
2018-07-27T09:37:13.338Z,1011.99
2018-07-27T09:38:13.402Z,1011.92
2018-07-27T09:39:13.408Z,1011.90
2018-07-27T09:40:13.451Z,1011.93
2018-07-27T09:41:13.463Z,1012.05
2018-07-27T09:42:13.442Z,1011.92
2018-07-27T09:43:13.465Z,1011.89
2018-07-27T09:44:13.688Z,1011.92
2018-07-27T09:45:13.505Z,1012.02
2018-07-27T09:46:13.573Z,1011.99
2018-07-27T09:47:13.507Z,1011.94
2018-07-27T09:48:13.584Z,1012.06
2018-07-27T09:49:13.585Z,1012.00
2018-07-27T09:50:13.591Z,1011.93
2018-07-27T09:51:13.583Z,1012.03
2018-07-27T09:52:13.647Z,1011.99
2018-07-27T09:53:13.700Z,1012.07
2018-07-27T09:54:13.649Z,1012.01
2018-07-27T09:55:13.689Z,1012.02
2018-07-27T09:56:13.778Z,1012.06
2018-07-27T09:57:13.713Z,1012.05
2018-07-27T09:58:13.789Z,1012.07
2018-07-27T09:59:13.796Z,1011.97
2018-07-27T10:00:13.797Z,1011.90
2018-07-27T10:01:13.841Z,1012.08
2018-07-27T10:02:13.816Z,1011.98
2018-07-27T10:03:13.833Z,1011.95
2018-07-27T10:04:13.868Z,1012.03
2018-07-27T10:05:13.868Z,1011.99
2018-07-27T10:06:13.947Z,1012.00
2018-07-27T10:07:13.941Z,1011.87
2018-07-27T10:08:13.921Z,1011.95
2018-07-27T10:09:13.948Z,1011.83
2018-07-27T10:10:13.974Z,1011.86
2018-07-27T10:11:13.981Z,1011.89
2018-07-27T10:12:13.968Z,1011.82
2018-07-27T10:13:14.010Z,1011.78
2018-07-27T10:14:14.012Z,1011.76
2018-07-27T10:15:14.058Z,1011.79
2018-07-27T10:16:14.073Z,1011.76
2018-07-27T10:17:14.032Z,1011.83
2018-07-27T10:18:14.073Z,1011.80
2018-07-27T10:19:14.097Z,1011.80
2018-07-27T10:20:14.228Z,1011.75
2018-07-27T10:21:14.169Z,1011.76
2018-07-27T10:22:14.295Z,1011.75
2018-07-27T10:23:14.190Z,1011.79
2018-07-27T10:24:14.248Z,1011.74
2018-07-27T10:25:14.255Z,1011.66
2018-07-27T10:26:14.421Z,1011.66
2018-07-27T10:27:14.263Z,1011.71
2018-07-27T10:28:14.253Z,1011.65
2018-07-27T10:29:14.294Z,1011.62
2018-07-27T10:30:14.321Z,1011.63
2018-07-27T10:31:14.345Z,1011.67
2018-07-27T10:32:14.353Z,1011.64
2018-07-27T10:33:14.333Z,1011.61
2018-07-27T10:34:14.351Z,1011.65
2018-07-27T10:35:14.400Z,1011.59
2018-07-27T10:36:14.388Z,1011.55
2018-07-27T10:37:14.468Z,1011.57
2018-07-27T10:38:14.409Z,1011.58
2018-07-27T10:39:14.418Z,1011.69
2018-07-27T10:40:14.467Z,1011.62
2018-07-27T10:41:14.564Z,1011.46
2018-07-27T10:42:14.557Z,1011.54
2018-07-27T10:43:14.636Z,1011.52
2018-07-27T10:44:14.552Z,1011.52
2018-07-27T10:45:14.572Z,1011.61
2018-07-27T10:46:14.619Z,1011.64
2018-07-27T10:47:14.581Z,1011.54
2018-07-27T10:48:14.650Z,1011.52
2018-07-27T10:49:14.665Z,1011.51
2018-07-27T10:50:14.765Z,1011.52
2018-07-27T10:51:14.700Z,1011.56
2018-07-27T10:52:14.704Z,1011.58
2018-07-27T10:53:14.790Z,1011.50
2018-07-27T10:54:14.732Z,1011.47
2018-07-27T10:55:14.771Z,1011.49
2018-07-27T10:56:14.834Z,1011.42
2018-07-27T10:57:14.840Z,1011.38
2018-07-27T10:58:14.875Z,1011.45
2018-07-27T10:59:14.790Z,1011.51
2018-07-27T11:00:14.857Z,1011.44
2018-07-27T11:01:14.830Z,1011.42
2018-07-27T11:02:14.971Z,1011.46
2018-07-27T11:03:14.860Z,1011.40
2018-07-27T11:04:14.918Z,1011.43
2018-07-27T11:05:14.957Z,1011.50
2018-07-27T11:06:14.930Z,1011.43
2018-07-27T11:07:14.948Z,1011.42
2018-07-27T11:08:14.970Z,1011.35
2018-07-27T11:09:15.041Z,1011.30
2018-07-27T11:10:15.009Z,1011.35
2018-07-27T11:11:15.010Z,1011.44
2018-07-27T11:12:15.142Z,1011.31
2018-07-27T11:13:15.145Z,1011.36
2018-07-27T11:14:15.074Z,1011.29
2018-07-27T11:15:15.163Z,1011.27
2018-07-27T11:16:15.203Z,1011.24
2018-07-27T11:17:15.194Z,1011.24
2018-07-27T11:18:15.248Z,1011.26
2018-07-27T11:19:15.172Z,1011.32
2018-07-27T11:20:15.203Z,1011.23
2018-07-27T11:21:15.234Z,1011.34
2018-07-27T11:22:15.248Z,1011.22
2018-07-27T11:23:15.303Z,1011.15
2018-07-27T11:24:15.295Z,1011.11
2018-07-27T11:25:15.304Z,1011.08
2018-07-27T11:26:15.302Z,1011.10
2018-07-27T11:27:15.294Z,1011.09
2018-07-27T11:28:15.368Z,1011.06
2018-07-27T11:29:15.501Z,1011.00
2018-07-27T11:30:15.381Z,1011.04
2018-07-27T11:31:15.529Z,1011.03
2018-07-27T11:32:15.390Z,1010.95
2018-07-27T11:33:15.425Z,1011.06
2018-07-27T11:34:15.495Z,1011.00
2018-07-27T11:35:15.512Z,1011.12
2018-07-27T11:36:15.468Z,1010.98
2018-07-27T11:37:15.563Z,1011.02
2018-07-27T11:38:15.512Z,1010.96
2018-07-27T11:39:15.531Z,1010.95
2018-07-27T11:40:15.550Z,1010.94
2018-07-27T11:41:15.546Z,1010.85
2018-07-27T11:42:15.686Z,1010.78
2018-07-27T11:43:15.590Z,1010.81
2018-07-27T11:44:15.676Z,1010.88
2018-07-27T11:45:15.630Z,1010.86
2018-07-27T11:46:15.628Z,1010.77
2018-07-27T11:47:15.713Z,1010.78
2018-07-27T11:48:15.726Z,1010.71
2018-07-27T11:49:15.714Z,1010.67
2018-07-27T11:50:15.728Z,1010.72
2018-07-27T11:51:15.723Z,1010.75
2018-07-27T11:52:15.754Z,1010.70
2018-07-27T11:53:15.779Z,1010.70
2018-07-27T11:54:15.867Z,1010.67
2018-07-27T11:55:15.829Z,1010.71
2018-07-27T11:56:15.810Z,1010.66
2018-07-27T11:57:15.818Z,1010.69
2018-07-27T11:58:15.883Z,1010.65
2018-07-27T11:59:15.912Z,1010.61
2018-07-27T12:00:16.005Z,1010.61
2018-07-27T12:01:15.902Z,1010.57
2018-07-27T12:02:15.971Z,1010.60
2018-07-27T12:03:15.965Z,1010.61
2018-07-27T12:04:15.967Z,1010.54
2018-07-27T12:05:16.028Z,1010.54